Time;durP1;ratioP1;P1;durP2;ratioP2;P2;SDS_P1;SDS_P2;PMS_P1;PMS_P2;Temp;Humidity;BMP_temperature;BMP_pressure;BME280_temperature;BME280_humidity;BME280_pressure;Samples;Min_cycle;Max_cycle;Signal;HPM_P1;HPM_P2
2021/07/02 00:01:35;;;;;;;13.80;9.80;;;23.40;76.40;;;;;;5055575;28;20525;-72
2021/07/02 00:04:00;;;;;;;17.02;10.20;;;23.30;76.40;;;;;;5055411;28;20057;-72
2021/07/02 00:06:26;;;;;;;17.85;11.13;;;23.30;76.60;;;;;;5055311;28;20467;-72
2021/07/02 00:08:51;;;;;;;14.43;9.93;;;23.30;76.70;;;;;;5055399;28;20378;-73
2021/07/02 00:11:17;;;;;;;14.52;10.23;;;23.20;76.70;;;;;;5055361;28;20032;-72
2021/07/02 00:13:43;;;;;;;15.60;11.07;;;23.20;76.80;;;;;;5055306;28;20029;-72
2021/07/02 00:16:09;;;;;;;18.92;11.10;;;23.20;76.90;;;;;;5055558;28;20108;-72
2021/07/02 00:18:34;;;;;;;16.00;10.05;;;23.20;76.90;;;;;;5070600;28;20029;-72
2021/07/02 00:21:00;;;;;;;17.33;11.30;;;23.20;76.90;;;;;;5070632;28;20415;-72
2021/07/02 00:23:26;;;;;;;18.50;11.48;;;23.20;77.00;;;;;;5055579;28;20036;-72
2021/07/02 00:25:52;;;;;;;22.00;11.85;;;23.20;77.10;;;;;;5055553;28;20051;-73
2021/07/02 00:28:18;;;;;;;16.75;10.73;;;23.20;77.10;;;;;;5055024;28;20108;-72
2021/07/02 00:30:43;;;;;;;18.05;9.65;;;23.20;77.10;;;;;;5054816;28;20120;-72
2021/07/02 00:33:09;;;;;;;15.20;9.60;;;23.10;77.10;;;;;;5054585;28;20092;-72
2021/07/02 00:35:35;;;;;;;16.15;9.38;;;23.10;77.20;;;;;;5055059;28;20032;-72
2021/07/02 00:38:01;;;;;;;15.00;9.70;;;23.10;77.30;;;;;;5054218;28;20020;-73
2021/07/02 00:40:26;;;;;;;17.90;10.35;;;23.10;77.20;;;;;;5054912;28;20048;-73
2021/07/02 00:42:52;;;;;;;14.43;10.80;;;23.10;77.30;;;;;;5054622;28;20029;-73
2021/07/02 00:45:18;;;;;;;13.48;10.32;;;23.00;77.30;;;;;;5054860;28;20158;-73
2021/07/02 00:47:44;;;;;;;15.50;10.88;;;23.00;77.50;;;;;;5054910;28;20036;-73
2021/07/02 00:50:11;;;;;;;16.83;11.55;;;23.00;77.50;;;;;;5070043;28;20375;-73
2021/07/02 00:52:37;;;;;;;15.77;11.18;;;23.00;77.70;;;;;;5074590;28;20125;-73
2021/07/02 00:55:03;;;;;;;15.57;10.73;;;23.00;77.70;;;;;;5074245;28;20033;-73
2021/07/02 00:57:30;;;;;;;21.75;10.85;;;22.90;77.70;;;;;;5074503;28;20412;-73
2021/07/02 00:59:55;;;;;;;16.98;11.07;;;22.90;77.80;;;;;;5074780;28;20078;-73
2021/07/02 01:02:21;;;;;;;16.70;10.10;;;22.90;77.80;;;;;;5074376;28;20029;-73
2021/07/02 01:04:47;;;;;;;15.35;9.48;;;22.90;77.80;;;;;;5074913;28;20463;-73
2021/07/02 01:07:14;;;;;;;15.52;10.00;;;22.90;77.90;;;;;;5073878;28;20044;-73
2021/07/02 01:09:43;;;;;;;17.60;10.02;;;22.90;77.90;;;;;;5073913;28;20036;-73
2021/07/02 01:12:10;;;;;;;23.60;11.20;;;22.80;77.90;;;;;;5074227;28;20030;-73
2021/07/02 01:14:36;;;;;;;16.88;11.00;;;22.80;78.00;;;;;;5074297;28;20078;-73
2021/07/02 01:17:02;;;;;;;14.60;11.55;;;22.80;78.10;;;;;;5073880;28;20021;-73
2021/07/02 01:19:27;;;;;;;16.13;10.35;;;22.80;78.30;;;;;;5074028;28;20462;-73
2021/07/02 01:21:55;;;;;;;20.35;10.98;;;22.80;78.20;;;;;;5073809;28;20078;-73
2021/07/02 01:24:22;;;;;;;19.30;11.55;;;22.70;78.20;;;;;;5074256;28;20032;-73
2021/07/02 01:26:49;;;;;;;18.30;10.45;;;22.70;78.30;;;;;;5074119;28;20029;-73
2021/07/02 01:29:15;;;;;;;17.05;11.25;;;22.70;78.30;;;;;;5073726;28;20455;-73
2021/07/02 01:31:40;;;;;;;17.67;10.95;;;22.70;78.40;;;;;;5074019;28;20024;-73
2021/07/02 01:34:06;;;;;;;14.35;9.77;;;22.70;78.40;;;;;;5073675;28;20383;-73
2021/07/02 01:36:32;;;;;;;14.88;9.40;;;22.70;78.40;;;;;;5072675;28;20036;-73
2021/07/02 01:38:58;;;;;;;13.95;9.20;;;22.70;78.40;;;;;;5072422;28;20142;-73
2021/07/02 01:41:23;;;;;;;11.85;8.48;;;22.70;78.40;;;;;;5072340;28;20021;-73
2021/07/02 01:43:49;;;;;;;12.48;8.85;;;22.70;78.50;;;;;;5072521;28;20447;-73
2021/07/02 01:46:16;;;;;;;13.38;9.00;;;22.70;78.50;;;;;;5072030;28;20035;-73
2021/07/02 01:48:42;;;;;;;12.57;8.90;;;22.70;78.60;;;;;;5071553;28;20083;-73
2021/07/02 01:51:08;;;;;;;10.35;8.55;;;22.70;78.50;;;;;;5072080;28;20059;-73
2021/07/02 01:53:34;;;;;;;14.35;8.85;;;22.70;78.40;;;;;;5072574;28;20052;-73
2021/07/02 01:56:00;;;;;;;12.35;9.20;;;22.80;78.40;;;;;;5072249;28;20462;-76
2021/07/02 01:58:26;;;;;;;13.55;9.20;;;22.70;78.30;;;;;;5072412;28;20035;-74
2021/07/02 02:00:51;;;;;;;12.23;8.60;;;22.80;78.30;;;;;;5070954;28;20107;-73
2021/07/02 02:03:17;;;;;;;11.82;9.05;;;22.70;78.30;;;;;;5072387;28;20074;-73
2021/07/02 02:05:43;;;;;;;15.20;8.52;;;22.70;78.30;;;;;;5072325;28;20021;-73
2021/07/02 02:08:10;;;;;;;13.50;9.40;;;22.70;78.40;;;;;;5072116;28;20024;-73
2021/07/02 02:10:35;;;;;;;12.48;8.70;;;22.70;78.40;;;;;;5072343;28;20071;-73
2021/07/02 02:13:01;;;;;;;14.90;8.80;;;22.70;78.30;;;;;;5071999;28;20063;-73
2021/07/02 02:15:27;;;;;;;11.85;8.75;;;22.70;78.30;;;;;;5072097;28;20078;-73
2021/07/02 02:17:53;;;;;;;18.55;9.27;;;22.70;78.20;;;;;;5071770;28;20489;-72
2021/07/02 02:20:18;;;;;;;14.13;9.05;;;22.60;78.10;;;;;;5071600;28;20455;-73
2021/07/02 02:22:44;;;;;;;12.13;8.45;;;22.70;78.20;;;;;;5071789;28;20020;-71
2021/07/02 02:25:10;;;;;;;10.25;8.50;;;22.60;78.10;;;;;;5071903;28;20021;-73
2021/07/02 02:27:37;;;;;;;17.80;9.15;;;22.60;78.10;;;;;;5071737;28;20025;-73
2021/07/02 02:30:06;;;;;;;14.70;10.23;;;22.60;78.10;;;;;;5071631;28;20060;-73
2021/07/02 02:32:31;;;;;;;20.27;13.13;;;22.60;78.10;;;;;;5071875;28;20032;-72
2021/07/02 02:34:57;;;;;;;20.27;12.93;;;22.70;78.00;;;;;;5071663;28;20020;-73
2021/07/02 02:37:23;;;;;;;18.13;12.63;;;22.70;77.90;;;;;;5071765;28;20024;-72
2021/07/02 02:39:48;;;;;;;19.35;12.07;;;22.70;77.80;;;;;;5071629;28;20038;-72
2021/07/02 02:42:14;;;;;;;16.73;11.15;;;22.70;77.70;;;;;;5068834;28;20481;-72
2021/07/02 02:44:40;;;;;;;17.20;10.20;;;22.70;78.20;;;;;;5071667;28;20432;-72
2021/07/02 02:47:05;;;;;;;13.88;10.30;;;22.70;77.50;;;;;;5071814;28;20416;-72
2021/07/02 02:49:31;;;;;;;12.23;9.73;;;22.70;77.40;;;;;;5087322;28;20025;-73
2021/07/02 02:51:57;;;;;;;14.80;9.98;;;22.70;77.30;;;;;;5071560;28;20052;-73
2021/07/02 02:54:22;;;;;;;13.38;9.52;;;22.70;77.30;;;;;;5071931;28;20032;-73
2021/07/02 02:57:04;;;;;;;15.00;9.48;;;22.70;77.30;;;;;;5072157;28;20078;-73
2021/07/02 02:59:31;;;;;;;15.25;9.20;;;22.70;77.30;;;;;;5072881;28;20109;-73
2021/07/02 03:01:57;;;;;;;17.30;10.07;;;22.70;77.40;;;;;;5076199;28;20471;-73
2021/07/02 03:04:23;;;;;;;16.75;10.57;;;22.70;77.20;;;;;;5076654;28;20052;-72
2021/07/02 03:06:49;;;;;;;18.55;11.15;;;22.70;77.10;;;;;;5076747;28;20029;-72
2021/07/02 03:09:15;;;;;;;17.45;12.35;;;22.70;77.10;;;;;;5076417;28;20060;-72
2021/07/02 03:11:43;;;;;;;19.65;14.18;;;22.70;77.10;;;;;;5076569;28;20467;-72
2021/07/02 03:14:09;;;;;;;23.23;13.65;;;22.70;77.10;;;;;;5076372;28;20033;-73
2021/07/02 03:16:35;;;;;;;22.00;13.30;;;22.70;77.10;;;;;;5076845;28;20482;-73
2021/07/02 03:19:01;;;;;;;22.02;13.40;;;22.70;77.10;;;;;;5076572;28;20024;-73
2021/07/02 03:21:26;;;;;;;17.55;11.88;;;22.70;77.20;;;;;;5076058;28;20477;-73
2021/07/02 03:23:52;;;;;;;20.75;12.20;;;22.70;77.40;;;;;;5075184;28;20034;-73
2021/07/02 03:26:17;;;;;;;14.90;11.57;;;22.70;77.40;;;;;;5075328;28;20451;-73
2021/07/02 03:28:44;;;;;;;15.85;11.48;;;22.70;77.40;;;;;;5076305;28;20389;-73
2021/07/02 03:31:09;;;;;;;15.90;11.40;;;22.70;77.40;;;;;;5074856;28;20032;-74
2021/07/02 03:33:35;;;;;;;14.20;10.85;;;22.80;77.40;;;;;;5076522;28;20033;-73
2021/07/02 03:36:01;;;;;;;16.60;11.02;;;22.80;77.30;;;;;;5074893;28;20050;-73
2021/07/02 03:38:26;;;;;;;17.08;10.32;;;22.90;77.30;;;;;;5076208;28;20035;-73
2021/07/02 03:40:52;;;;;;;14.75;10.90;;;23.00;77.30;;;;;;5075965;28;20035;-73
2021/07/02 03:43:18;;;;;;;12.88;10.55;;;23.00;77.20;;;;;;5075968;28;20028;-73
2021/07/02 03:45:44;;;;;;;12.45;10.23;;;23.10;77.00;;;;;;5076011;28;20032;-72
2021/07/02 03:48:10;;;;;;;16.85;11.65;;;23.10;76.80;;;;;;5075633;28;20024;-73
2021/07/02 03:50:36;;;;;;;13.45;10.27;;;23.20;76.80;;;;;;5075758;28;20071;-73
2021/07/02 03:53:02;;;;;;;13.45;10.80;;;23.30;76.70;;;;;;5075964;28;20144;-73
2021/07/02 03:55:27;;;;;;;13.38;9.48;;;23.30;76.50;;;;;;5075392;28;20024;-73
2021/07/02 03:57:53;;;;;;;12.60;10.63;;;23.30;76.50;;;;;;5074341;28;20031;-73
2021/07/02 04:00:19;;;;;;;15.68;10.48;;;23.40;76.60;;;;;;5075579;28;20036;-73
2021/07/02 04:02:44;;;;;;;12.15;10.02;;;23.40;76.50;;;;;;5073774;28;20086;-72
2021/07/02 04:05:10;;;;;;;13.98;10.80;;;23.50;76.50;;;;;;5071016;28;20070;-73
2021/07/02 04:07:36;;;;;;;13.18;10.10;;;23.60;76.30;;;;;;5091227;28;20032;-73
2021/07/02 04:10:03;;;;;;;12.13;10.73;;;23.60;76.20;;;;;;5075394;28;20039;-72
2021/07/02 04:12:29;;;;;;;12.48;10.80;;;23.60;76.00;;;;;;5073937;28;20020;-72
2021/07/02 04:14:54;;;;;;;17.95;11.15;;;23.70;75.90;;;;;;5075691;28;20027;-73
2021/07/02 04:17:20;;;;;;;12.63;9.88;;;23.70;76.00;;;;;;5075182;28;20382;-72
2021/07/02 04:19:46;;;;;;;15.05;10.38;;;23.70;76.00;;;;;;5075676;28;20071;-73
2021/07/02 04:22:11;;;;;;;16.92;10.77;;;23.80;76.10;;;;;;5075224;28;20379;-72
2021/07/02 04:24:37;;;;;;;15.05;10.80;;;23.90;75.90;;;;;;5075181;28;20028;-73
2021/07/02 04:27:03;;;;;;;13.38;11.43;;;23.90;75.90;;;;;;5075034;28;20029;-72
2021/07/02 04:29:29;;;;;;;16.73;11.25;;;24.00;75.80;;;;;;5075222;28;20040;-72
2021/07/02 04:31:55;;;;;;;15.48;11.82;;;24.00;75.60;;;;;;5075202;28;20038;-73
2021/07/02 04:34:21;;;;;;;12.75;10.98;;;24.20;75.50;;;;;;5075223;28;20143;-73
2021/07/02 04:36:46;;;;;;;16.23;12.02;;;24.20;75.20;;;;;;5075062;28;20090;-73
2021/07/02 04:39:12;;;;;;;14.13;12.48;;;24.30;75.00;;;;;;5074581;28;20474;-73
2021/07/02 04:41:38;;;;;;;17.35;11.93;;;24.30;74.90;;;;;;5059895;28;20029;-74
2021/07/02 04:44:04;;;;;;;24.83;12.20;;;24.40;74.80;;;;;;5054584;28;20033;-74
2021/07/02 04:46:30;;;;;;;14.55;12.70;;;24.50;74.80;;;;;;5054682;28;20032;-73
2021/07/02 04:48:56;;;;;;;17.30;12.48;;;24.50;74.70;;;;;;5053465;28;20033;-73
2021/07/02 04:51:22;;;;;;;13.63;11.57;;;24.60;74.60;;;;;;5054193;28;20025;-73
2021/07/02 04:53:48;;;;;;;17.80;12.50;;;24.70;74.50;;;;;;5054803;28;20060;-73
2021/07/02 04:56:14;;;;;;;14.05;11.88;;;24.70;75.00;;;;;;5054543;28;20024;-73
2021/07/02 04:58:42;;;;;;;13.65;11.73;;;24.70;74.20;;;;;;5053333;28;20067;-73
2021/07/02 05:01:08;;;;;;;14.60;12.43;;;24.80;74.10;;;;;;5054185;28;20443;-72
2021/07/02 05:03:34;;;;;;;14.50;12.38;;;24.80;74.00;;;;;;5061530;28;20071;-72
2021/07/02 05:06:05;;;;;;;14.45;11.77;;;24.90;74.20;;;;;;5074168;28;20060;-73
2021/07/02 05:08:31;;;;;;;15.27;13.18;;;25.00;74.20;;;;;;5073813;28;20419;-73
2021/07/02 05:10:56;;;;;;;17.23;13.00;;;25.00;74.00;;;;;;5073871;28;20162;-73
2021/07/02 05:13:22;;;;;;;14.05;12.40;;;25.10;73.90;;;;;;5073772;28;20083;-73
2021/07/02 05:15:49;;;;;;;16.08;12.30;;;25.20;73.70;;;;;;5074224;28;20029;-73
2021/07/02 05:18:15;;;;;;;14.35;12.93;;;25.30;73.50;;;;;;5074058;28;20023;-73
2021/07/02 05:20:45;;;;;;;16.35;12.38;;;25.40;73.50;;;;;;5073929;28;20029;-73
2021/07/02 05:23:12;;;;;;;14.75;11.95;;;25.50;73.50;;;;;;5073370;28;20025;-75
2021/07/02 05:25:38;;;;;;;15.35;13.02;;;25.70;73.30;;;;;;5073684;28;20017;-73
2021/07/02 05:28:04;;;;;;;16.27;11.85;;;25.70;73.00;;;;;;5063870;28;20391;-73
2021/07/02 05:30:31;;;;;;;17.73;12.60;;;25.90;72.80;;;;;;5070624;28;20039;-72
2021/07/02 05:32:56;;;;;;;16.75;12.80;;;25.90;72.60;;;;;;5073799;28;20417;-74
2021/07/02 05:35:22;;;;;;;15.82;12.77;;;26.00;72.30;;;;;;5073456;28;20078;-73
2021/07/02 05:37:48;;;;;;;15.15;13.50;;;26.00;72.10;;;;;;5073316;28;20378;-74
2021/07/02 05:40:16;;;;;;;15.10;12.23;;;26.10;72.00;;;;;;5073627;28;20115;-74
2021/07/02 05:42:42;;;;;;;15.75;11.90;;;26.10;72.10;;;;;;5073453;28;20037;-74
2021/07/02 05:45:09;;;;;;;15.70;12.77;;;26.20;71.70;;;;;;5073275;28;20033;-74
2021/07/02 05:47:50;;;;;;;15.68;12.85;;;26.30;71.70;;;;;;5071973;28;20028;-73
2021/07/02 05:50:18;;;;;;;15.60;12.52;;;26.50;71.50;;;;;;5073357;28;20124;-73
2021/07/02 05:52:43;;;;;;;15.77;13.90;;;26.60;71.00;;;;;;5073233;28;20546;-73
2021/07/02 05:55:12;;;;;;;19.98;14.13;;;26.70;70.60;;;;;;5073615;28;20056;-73
2021/07/02 05:57:40;;;;;;;15.55;12.90;;;26.70;70.50;;;;;;5073520;28;20099;-73
2021/07/02 06:00:07;;;;;;;16.15;12.85;;;26.70;70.60;;;;;;5073339;28;20036;-73
2021/07/02 06:02:33;;;;;;;16.65;13.20;;;26.90;70.60;;;;;;5072935;28;20505;-73
2021/07/02 06:04:58;;;;;;;14.93;12.65;;;27.00;70.00;;;;;;5073333;28;20028;-73
2021/07/02 06:07:24;;;;;;;14.48;12.23;;;27.00;69.50;;;;;;5073081;28;20415;-73
2021/07/02 06:09:50;;;;;;;16.65;12.75;;;27.10;69.20;;;;;;5073327;28;20040;-73
2021/07/02 06:12:15;;;;;;;18.85;12.60;;;27.30;69.20;;;;;;5073022;28;20099;-73
2021/07/02 06:14:41;;;;;;;18.00;11.75;;;27.40;68.90;;;;;;5072967;28;20065;-73
2021/07/02 06:17:07;;;;;;;16.48;12.07;;;27.50;68.30;;;;;;5072369;28;20030;-73
2021/07/02 06:19:32;;;;;;;16.75;11.75;;;27.50;68.20;;;;;;5073121;28;20086;-72
2021/07/02 06:21:58;;;;;;;17.13;11.82;;;27.50;67.80;;;;;;5072818;28;20021;-75
2021/07/02 06:24:24;;;;;;;12.90;11.32;;;27.60;67.70;;;;;;5073209;28;20035;-74
2021/07/02 06:26:50;;;;;;;12.65;10.23;;;27.60;67.70;;;;;;5072884;28;20028;-74
2021/07/02 06:29:15;;;;;;;13.23;10.63;;;27.70;67.60;;;;;;5073029;28;20466;-73
2021/07/02 06:31:41;;;;;;;11.93;10.43;;;27.80;67.40;;;;;;5073529;28;20028;-73
2021/07/02 06:34:07;;;;;;;14.70;10.60;;;27.90;67.20;;;;;;5072957;28;20028;-73
2021/07/02 06:36:33;;;;;;;12.35;9.93;;;28.00;66.70;;;;;;5075892;28;20516;-73
2021/07/02 06:38:58;;;;;;;12.65;9.77;;;28.10;66.50;;;;;;5076961;28;20097;-73
2021/07/02 06:41:24;;;;;;;13.43;9.60;;;28.30;66.10;;;;;;5076930;28;20025;-73
2021/07/02 06:43:50;;;;;;;11.35;9.70;;;28.30;66.00;;;;;;5076937;28;20029;-72
2021/07/02 06:46:15;;;;;;;13.30;10.20;;;28.40;64.80;;;;;;5076502;28;20481;-73
2021/07/02 06:48:41;;;;;;;13.23;10.43;;;28.60;64.90;;;;;;5077178;28;20029;-73
2021/07/02 06:51:06;;;;;;;12.95;8.48;;;28.70;64.90;;;;;;5076612;28;20025;-75
2021/07/02 06:53:32;;;;;;;10.52;8.70;;;28.80;63.30;;;;;;5077089;28;20475;-74
2021/07/02 06:55:58;;;;;;;12.30;8.48;;;28.80;62.60;;;;;;5076518;28;20036;-73
2021/07/02 06:58:24;;;;;;;11.15;8.30;;;28.80;62.40;;;;;;5076042;28;20029;-73
2021/07/02 07:00:49;;;;;;;14.77;11.30;;;28.90;61.60;;;;;;5070956;28;20100;-74
2021/07/02 07:03:15;;;;;;;15.13;11.85;;;28.90;62.40;;;;;;5056359;28;20086;-74
2021/07/02 07:05:41;;;;;;;14.88;13.23;;;29.00;62.90;;;;;;5065398;28;20085;-73
2021/07/02 07:08:08;;;;;;;16.25;14.65;;;29.20;63.60;;;;;;5058382;28;20104;-73
2021/07/02 07:10:36;;;;;;;14.82;13.07;;;29.30;64.10;;;;;;5056453;28;20112;-73
2021/07/02 07:13:05;;;;;;;17.58;12.93;;;29.50;64.00;;;;;;5056456;28;20025;-73
2021/07/02 07:15:31;;;;;;;21.02;13.02;;;29.60;63.70;;;;;;5067626;28;20028;-73
2021/07/02 07:17:56;;;;;;;16.45;13.52;;;29.70;63.70;;;;;;5076411;28;20115;-74
2021/07/02 07:20:22;;;;;;;14.50;12.90;;;29.80;64.00;;;;;;5076152;28;20455;-73
2021/07/02 07:22:48;;;;;;;14.95;13.38;;;29.80;63.80;;;;;;5076391;28;20025;-73
2021/07/02 07:25:15;;;;;;;14.15;12.65;;;29.90;63.70;;;;;;5076256;28;20106;-72
2021/07/02 07:27:44;;;;;;;13.93;12.52;;;30.00;63.60;;;;;;5075804;28;20055;-74
2021/07/02 07:30:12;;;;;;;15.57;12.55;;;30.00;63.40;;;;;;5072206;28;20036;-73
2021/07/02 07:32:38;;;;;;;16.08;13.82;;;30.10;63.50;;;;;;5074459;28;20025;-74
2021/07/02 07:35:23;;;;;;;16.77;13.30;;;30.20;63.40;;;;;;5074729;28;20061;-74
2021/07/02 07:37:54;;;;;;;15.82;12.77;;;30.40;63.40;;;;;;5072359;28;20066;-73
2021/07/02 07:40:20;;;;;;;19.98;13.10;;;30.40;63.30;;;;;;5074594;28;20021;-73
2021/07/02 07:42:46;;;;;;;19.42;12.77;;;30.40;63.00;;;;;;5074701;28;20416;-75
2021/07/02 07:45:12;;;;;;;16.90;12.52;;;30.50;62.70;;;;;;5074708;28;20032;-73
2021/07/02 07:47:38;;;;;;;18.90;13.07;;;30.50;62.50;;;;;;5074577;28;20482;-73
2021/07/02 07:50:09;;;;;;;15.25;12.30;;;30.60;62.20;;;;;;5074447;28;20474;-73
2021/07/02 07:52:46;;;;;;;14.68;12.15;;;30.70;61.80;;;;;;5074480;28;20043;-73
2021/07/02 07:55:13;;;;;;;19.50;12.52;;;30.80;61.60;;;;;;5072511;28;20111;-74
2021/07/02 07:57:39;;;;;;;13.93;12.32;;;30.90;61.20;;;;;;5074569;28;20035;-73
2021/07/02 08:00:06;;;;;;;13.80;10.77;;;31.00;61.00;;;;;;5075289;28;20029;-74
2021/07/02 08:02:31;;;;;;;13.88;11.15;;;31.20;61.10;;;;;;5075511;28;20044;-74
2021/07/02 08:04:57;;;;;;;17.67;11.02;;;31.30;60.70;;;;;;5075198;28;20466;-76
2021/07/02 08:07:23;;;;;;;14.77;9.70;;;31.50;60.40;;;;;;5066928;28;20079;-74
2021/07/02 08:09:49;;;;;;;15.57;11.23;;;31.60;59.90;;;;;;5063901;28;20048;-73
2021/07/02 08:12:15;;;;;;;18.33;11.40;;;31.70;59.90;;;;;;5055443;28;20108;-73
2021/07/02 08:14:41;;;;;;;13.23;10.57;;;31.70;59.50;;;;;;5070645;28;20108;-74
2021/07/02 08:17:07;;;;;;;16.45;11.45;;;31.80;59.30;;;;;;5055057;28;20037;-74
2021/07/02 08:19:34;;;;;;;33.17;12.40;;;31.80;59.20;;;;;;5070534;28;20032;-74
2021/07/02 08:21:59;;;;;;;15.70;11.43;;;31.80;59.40;;;;;;5055202;28;20027;-73
2021/07/02 08:24:25;;;;;;;13.32;10.13;;;31.70;59.40;;;;;;5054895;28;20518;-73
2021/07/02 08:26:55;;;;;;;24.23;10.68;;;31.80;58.80;;;;;;5054663;28;20025;-73
2021/07/02 08:29:28;;;;;;;15.15;10.15;;;31.80;58.80;;;;;;5054795;28;20120;-73
2021/07/02 08:31:59;;;;;;;16.75;11.25;;;31.80;58.60;;;;;;5055010;28;20025;-73
2021/07/02 08:34:25;;;;;;;13.45;10.02;;;31.80;58.70;;;;;;5054982;28;20036;-73
2021/07/02 08:36:51;;;;;;;12.88;9.55;;;31.90;58.70;;;;;;5070562;28;20435;-73
2021/07/02 08:39:16;;;;;;;12.98;9.52;;;32.10;58.00;;;;;;5054414;28;20389;-73
2021/07/02 08:41:42;;;;;;;12.75;9.20;;;32.20;57.50;;;;;;5062440;28;20119;-74
2021/07/02 08:44:08;;;;;;;12.85;9.23;;;32.20;57.20;;;;;;5072239;28;20032;-73
2021/07/02 08:46:35;;;;;;;10.32;9.00;;;32.30;57.20;;;;;;5073366;28;20543;-74
2021/07/02 08:49:02;;;;;;;10.27;8.95;;;32.50;57.30;;;;;;5072774;28;20036;-74
2021/07/02 08:51:28;;;;;;;10.35;9.23;;;32.70;57.20;;;;;;5068088;28;20025;-73
2021/07/02 08:53:56;;;;;;;12.13;9.23;;;33.00;57.00;;;;;;5072063;28;20059;-74
2021/07/02 08:56:22;;;;;;;10.20;8.93;;;33.20;56.50;;;;;;5073107;28;20036;-75
2021/07/02 08:58:48;;;;;;;9.80;8.85;;;33.40;56.20;;;;;;5071804;28;20025;-73
2021/07/02 09:01:42;;;;;;;10.52;8.38;;;33.50;56.00;;;;;;5072697;28;20024;-74
2021/07/02 09:04:15;;;;;;;;;;;33.60;55.10;;;;;;5073302;28;20108;-73
2021/07/02 09:06:57;;;;;;;11.88;8.93;;;33.60;55.80;;;;;;5072958;28;19909;-73
2021/07/02 09:09:23;;;;;;;10.85;9.35;;;33.70;55.50;;;;;;5072208;28;20032;-74
2021/07/02 09:11:49;;;;;;;12.90;8.73;;;33.60;55.70;;;;;;5072718;28;20455;-74
2021/07/02 09:14:24;;;;;;;9.95;9.05;;;33.50;55.80;;;;;;5072562;28;20028;-74
2021/07/02 09:16:50;;;;;;;10.73;8.90;;;33.40;55.90;;;;;;5070009;28;20510;-74
2021/07/02 09:19:29;;;;;;;11.82;8.70;;;33.40;56.30;;;;;;5072735;28;20107;-74
2021/07/02 09:22:21;;;;;;;12.50;8.13;;;33.50;56.10;;;;;;5070850;28;20016;-74
2021/07/02 09:24:49;;;;;;;11.32;8.07;;;33.70;55.70;;;;;;5072324;28;20027;-73
2021/07/02 09:27:33;;;;;;;8.38;7.43;;;33.90;55.40;;;;;;5072684;28;20462;-74
2021/07/02 09:30:12;;;;;;;8.40;7.60;;;34.10;54.60;;;;;;5066665;28;20033;-75
2021/07/02 09:32:40;;;;;;;9.98;7.85;;;34.20;54.60;;;;;;5070354;28;20070;-74
2021/07/02 09:35:06;;;;;;;8.90;8.00;;;34.20;54.60;;;;;;5072486;28;20028;-73
2021/07/02 09:37:38;;;;;;;8.68;7.55;;;34.30;54.30;;;;;;5072228;28;20044;-73
2021/07/02 09:40:11;;;;;;;10.10;7.40;;;34.30;54.30;;;;;;5073403;28;20378;-75
2021/07/02 09:42:37;;;;;;;10.65;7.70;;;34.20;54.40;;;;;;5073363;28;20025;-74
2021/07/02 09:45:17;;;;;;;9.80;7.38;;;34.20;54.60;;;;;;5073235;28;20580;-73
2021/07/02 09:47:45;;;;;;;11.48;8.00;;;34.50;54.50;;;;;;5073565;28;20032;-75
2021/07/02 09:50:13;;;;;;;9.27;7.70;;;34.90;54.40;;;;;;5073546;28;20032;-75
2021/07/02 09:52:50;;;;;;;8.85;7.57;;;35.50;54.00;;;;;;5073354;28;20402;-74
2021/07/02 09:55:18;;;;;;;8.48;7.78;;;35.90;52.90;;;;;;5072259;28;20028;-75
2021/07/02 09:57:44;;;;;;;9.02;8.02;;;35.90;52.70;;;;;;5069771;28;20021;-74
2021/07/02 10:00:16;;;;;;;13.63;8.23;;;36.10;52.20;;;;;;5072059;28;20043;-73
2021/07/02 10:03:08;;;;;;;10.93;8.63;;;36.30;52.00;;;;;;5084965;28;20536;-75
2021/07/02 10:05:53;;;;;;;9.38;8.43;;;36.30;52.10;;;;;;5068527;28;20078;-75
2021/07/02 10:08:20;;;;;;;10.00;8.20;;;36.70;52.10;;;;;;5071441;28;20078;-73
2021/07/02 10:10:48;;;;;;;8.57;7.63;;;37.20;51.20;;;;;;5071143;28;20039;-74
2021/07/02 10:13:14;;;;;;;16.10;8.52;;;37.80;50.40;;;;;;5072133;28;20078;-75
2021/07/02 10:15:42;;;;;;;8.95;8.15;;;38.20;50.00;;;;;;5072012;28;20028;-74
2021/07/02 10:18:12;;;;;;;9.10;8.15;;;38.70;49.10;;;;;;5072402;28;20432;-74
2021/07/02 10:20:40;;;;;;;8.93;8.02;;;39.20;48.70;;;;;;5073045;28;20029;-73
2021/07/02 10:23:07;;;;;;;9.10;8.18;;;39.50;48.20;;;;;;5072852;28;20473;-73
2021/07/02 10:25:33;;;;;;;10.38;8.32;;;39.80;48.00;;;;;;5073288;28;20025;-73
2021/07/02 10:27:59;;;;;;;11.38;8.10;;;40.00;47.20;;;;;;5073540;28;20113;-73
2021/07/02 10:30:25;;;;;;;9.50;8.23;;;39.70;47.00;;;;;;5072042;28;20486;-76
2021/07/02 10:32:55;;;;;;;8.77;7.95;;;39.20;47.40;;;;;;5073310;28;20032;-74
2021/07/02 10:35:22;;;;;;;10.07;8.75;;;39.00;47.80;;;;;;5073176;28;20031;-75
2021/07/02 10:37:54;;;;;;;8.93;8.10;;;39.00;48.50;;;;;;5072009;28;20033;-74
2021/07/02 10:40:28;;;;;;;11.45;8.23;;;39.30;47.60;;;;;;5073091;28;20111;-74
2021/07/02 10:43:31;;;;;;;8.80;7.90;;;39.70;47.00;;;;;;5072050;28;20025;-73
2021/07/02 10:46:16;;;;;;;8.95;8.05;;;39.80;46.90;;;;;;5072545;28;20497;-75
2021/07/02 10:48:50;;;;;;;9.55;7.88;;;39.90;46.90;;;;;;5072694;28;20112;-75
2021/07/02 10:51:39;;;;;;;8.18;7.38;;;40.20;46.50;;;;;;5070353;28;20028;-75
2021/07/02 10:54:14;;;;;;;9.50;8.55;;;40.50;46.40;;;;;;5072759;28;20097;-74
2021/07/02 10:56:44;;;;;;;8.98;7.78;;;40.90;45.80;;;;;;5072658;28;20035;-75
2021/07/02 10:59:12;;;;;;;9.52;8.10;;;41.20;45.10;;;;;;5072321;28;20098;-74
2021/07/02 11:01:56;;;;;;;9.80;8.13;;;41.50;44.80;;;;;;5071412;28;20387;-74
2021/07/02 11:04:42;;;;;;;10.52;7.90;;;41.90;45.10;;;;;;5073103;28;20386;-74
2021/07/02 11:07:14;;;;;;;8.80;7.93;;;41.90;44.30;;;;;;5073093;28;20111;-73
2021/07/02 11:09:55;;;;;;;12.32;8.43;;;41.10;44.50;;;;;;5072671;28;20041;-73
2021/07/02 11:12:29;;;;;;;23.63;9.48;;;40.10;45.00;;;;;;5072971;28;20028;-73
2021/07/02 11:14:56;;;;;;;9.65;8.75;;;39.20;45.90;;;;;;5072734;28;20084;-74
2021/07/02 11:17:30;;;;;;;9.55;8.02;;;38.50;46.70;;;;;;5072563;28;20031;-74
2021/07/02 11:22:36;;;;;;;12.57;9.30;;;37.70;48.20;;;;;;5075315;28;20031;-73
2021/07/02 11:25:06;;;;;;;10.88;8.45;;;37.60;49.00;;;;;;5074310;28;20111;-75
2021/07/02 11:27:46;;;;;;;9.63;8.68;;;38.20;48.90;;;;;;5070022;28;20430;-74
2021/07/02 11:30:24;;;;;;;11.45;8.43;;;38.40;48.40;;;;;;5074143;28;20082;-74
2021/07/02 11:32:53;;;;;;;10.70;8.18;;;38.80;48.10;;;;;;5074015;28;20076;-75
2021/07/02 11:35:39;;;;;;;9.40;8.40;;;39.40;47.70;;;;;;5075554;28;20032;-74
2021/07/02 11:38:13;;;;;;;8.52;7.63;;;40.10;47.00;;;;;;5072965;28;20476;-75
2021/07/02 11:40:51;;;;;;;9.20;8.02;;;40.80;46.20;;;;;;5074689;28;20020;-75
2021/07/02 11:43:31;;;;;;;9.98;7.65;;;41.50;45.00;;;;;;5063129;28;20032;-74
2021/07/02 11:45:58;;;;;;;10.32;8.00;;;41.50;44.30;;;;;;5088135;28;20378;-76
2021/07/02 11:48:24;;;;;;;8.50;7.63;;;41.70;44.50;;;;;;5072689;28;20482;-74
2021/07/02 11:51:02;;;;;;;8.70;7.38;;;42.10;44.30;;;;;;5075369;28;20056;-74
2021/07/02 11:53:37;;;;;;;9.00;8.10;;;42.50;43.80;;;;;;5074944;28;20178;-74
2021/07/02 11:56:13;;;;;;;8.30;7.50;;;42.40;43.60;;;;;;5073543;28;20085;-74
2021/07/02 11:58:41;;;;;;;8.35;7.40;;;42.50;43.60;;;;;;5075614;28;20047;-74
2021/07/02 12:01:08;;;;;;;8.35;7.55;;;42.90;43.20;;;;;;5075768;28;20032;-73
2021/07/02 12:03:43;;;;;;;8.63;7.82;;;43.20;42.90;;;;;;5075320;28;20025;-74
2021/07/02 12:06:08;;;;;;;8.25;7.43;;;43.60;42.60;;;;;;5075719;28;20031;-74
2021/07/02 12:08:34;;;;;;;8.23;7.25;;;43.90;41.80;;;;;;5075265;28;20024;-74
2021/07/02 12:11:01;;;;;;;8.00;7.20;;;44.20;41.80;;;;;;5074980;28;20123;-74
2021/07/02 12:13:29;;;;;;;8.02;7.10;;;44.50;41.40;;;;;;5075274;28;20025;-77
2021/07/02 12:16:10;;;;;;;8.98;7.22;;;44.60;40.80;;;;;;5075073;28;20033;-74
2021/07/02 12:18:38;;;;;;;8.85;7.30;;;44.60;40.80;;;;;;5070282;28;20033;-74
2021/07/02 12:21:05;;;;;;;7.88;7.05;;;44.70;40.80;;;;;;5063113;28;20024;-75
2021/07/02 12:23:36;;;;;;;8.38;7.63;;;45.00;40.50;;;;;;5072198;28;20363;-75
2021/07/02 12:26:13;;;;;;;9.75;7.20;;;44.70;40.10;;;;;;5071146;28;20082;-75
2021/07/02 12:28:59;;;;;;;7.82;7.03;;;44.10;40.60;;;;;;5068060;28;20025;-74
2021/07/02 12:31:30;;;;;;;7.63;6.88;;;44.00;40.80;;;;;;5070045;28;20351;-74
2021/07/02 12:33:57;;;;;;;8.25;7.20;;;44.20;40.90;;;;;;5072301;28;20013;-74
2021/07/02 12:36:24;;;;;;;7.05;6.35;;;44.50;40.70;;;;;;5071884;28;20111;-74
2021/07/02 12:39:10;;;;;;;7.60;6.53;;;44.90;39.90;;;;;;5072064;28;20028;-75
2021/07/02 12:41:43;;;;;;;6.93;6.32;;;45.20;39.40;;;;;;5072238;28;20029;-74